sensor_id;sensor_type;location;lat;lon;timestamp;pressure;altitude;pressure_sealevel;temperature;humidity
62632;BME280;48703;51.248;-0.546;2023-06-22T00:02:41;101235;;;17.34;80.37
62632;BME280;48703;51.248;-0.546;2023-06-22T00:05:43;101238;;;17.29;80.89
62632;BME280;48703;51.248;-0.546;2023-06-22T00:08:45;101239;;;17.22;81.42
62632;BME280;48703;51.248;-0.546;2023-06-22T00:11:47;101237;;;17.16;81.50
62632;BME280;48703;51.248;-0.546;2023-06-22T00:14:48;101238;;;17.06;81.63
62632;BME280;48703;51.248;-0.546;2023-06-22T00:17:50;101242;;;17.07;81.08
62632;BME280;48703;51.248;-0.546;2023-06-22T00:20:52;101239;;;17.06;80.99
62632;BME280;48703;51.248;-0.546;2023-06-22T00:23:54;101237;;;17.02;81.07
62632;BME280;48703;51.248;-0.546;2023-06-22T00:26:56;101242;;;16.91;81.83
62632;BME280;48703;51.248;-0.546;2023-06-22T00:29:58;101242;;;16.86;81.70
62632;BME280;48703;51.248;-0.546;2023-06-22T00:33:00;101234;;;16.83;81.76
62632;BME280;48703;51.248;-0.546;2023-06-22T00:36:02;101233;;;16.73;82.24
62632;BME280;48703;51.248;-0.546;2023-06-22T00:39:03;101234;;;16.66;82.30
62632;BME280;48703;51.248;-0.546;2023-06-22T00:42:05;101238;;;16.60;82.22
62632;BME280;48703;51.248;-0.546;2023-06-22T00:45:07;101238;;;16.58;82.35
62632;BME280;48703;51.248;-0.546;2023-06-22T00:48:09;101242;;;16.51;82.18
62632;BME280;48703;51.248;-0.546;2023-06-22T00:51:11;101245;;;16.43;82.69
62632;BME280;48703;51.248;-0.546;2023-06-22T00:54:13;101245;;;16.39;82.50
62632;BME280;48703;51.248;-0.546;2023-06-22T00:57:14;101243;;;16.38;82.83
62632;BME280;48703;51.248;-0.546;2023-06-22T01:00:17;101238;;;16.35;82.72
62632;BME280;48703;51.248;-0.546;2023-06-22T01:03:18;101239;;;16.29;82.99
62632;BME280;48703;51.248;-0.546;2023-06-22T01:06:21;101242;;;16.25;83.04
62632;BME280;48703;51.248;-0.546;2023-06-22T01:09:22;101246;;;16.25;82.98
62632;BME280;48703;51.248;-0.546;2023-06-22T01:12:24;101246;;;16.17;83.54
62632;BME280;48703;51.248;-0.546;2023-06-22T01:15:27;101242;;;16.11;83.31
62632;BME280;48703;51.248;-0.546;2023-06-22T01:18:28;101240;;;16.05;84.52
62632;BME280;48703;51.248;-0.546;2023-06-22T01:21:30;101240;;;16.04;83.52
62632;BME280;48703;51.248;-0.546;2023-06-22T01:24:32;101241;;;16.03;83.12
62632;BME280;48703;51.248;-0.546;2023-06-22T01:27:36;101239;;;15.95;84.25
62632;BME280;48703;51.248;-0.546;2023-06-22T01:30:35;101240;;;15.88;85.00
62632;BME280;48703;51.248;-0.546;2023-06-22T01:33:37;101239;;;15.84;84.56
62632;BME280;48703;51.248;-0.546;2023-06-22T01:36:39;101236;;;15.77;85.52
62632;BME280;48703;51.248;-0.546;2023-06-22T01:39:40;101229;;;15.73;84.11
62632;BME280;48703;51.248;-0.546;2023-06-22T01:42:42;101229;;;15.71;85.37
62632;BME280;48703;51.248;-0.546;2023-06-22T01:45:44;101228;;;15.64;85.26
62632;BME280;48703;51.248;-0.546;2023-06-22T01:48:46;101229;;;15.61;84.88
62632;BME280;48703;51.248;-0.546;2023-06-22T01:51:48;101229;;;15.59;85.10
62632;BME280;48703;51.248;-0.546;2023-06-22T01:54:50;101229;;;15.60;85.10
62632;BME280;48703;51.248;-0.546;2023-06-22T01:57:52;101237;;;15.60;84.72
62632;BME280;48703;51.248;-0.546;2023-06-22T02:00:56;101239;;;15.56;84.29
62632;BME280;48703;51.248;-0.546;2023-06-22T02:03:57;101239;;;15.56;84.50
62632;BME280;48703;51.248;-0.546;2023-06-22T02:06:58;101247;;;15.54;84.87
62632;BME280;48703;51.248;-0.546;2023-06-22T02:09:59;101246;;;15.47;84.99
62632;BME280;48703;51.248;-0.546;2023-06-22T02:13:01;101241;;;15.40;85.04
62632;BME280;48703;51.248;-0.546;2023-06-22T02:16:03;101236;;;15.40;85.56
62632;BME280;48703;51.248;-0.546;2023-06-22T02:19:05;101235;;;15.37;85.71
62632;BME280;48703;51.248;-0.546;2023-06-22T02:22:07;101234;;;15.38;85.25
62632;BME280;48703;51.248;-0.546;2023-06-22T02:25:08;101238;;;15.29;86.71
62632;BME280;48703;51.248;-0.546;2023-06-22T02:28:10;101236;;;15.22;86.74
62632;BME280;48703;51.248;-0.546;2023-06-22T02:31:12;101239;;;15.19;86.31
62632;BME280;48703;51.248;-0.546;2023-06-22T02:34:14;101242;;;15.23;85.70
62632;BME280;48703;51.248;-0.546;2023-06-22T02:37:16;101245;;;15.19;86.56
62632;BME280;48703;51.248;-0.546;2023-06-22T02:40:18;101249;;;15.18;87.66
62632;BME280;48703;51.248;-0.546;2023-06-22T02:43:20;101248;;;15.20;87.08
62632;BME280;48703;51.248;-0.546;2023-06-22T02:46:21;101247;;;15.20;86.78
62632;BME280;48703;51.248;-0.546;2023-06-22T02:49:23;101244;;;15.16;87.31
62632;BME280;48703;51.248;-0.546;2023-06-22T02:52:25;101243;;;15.17;86.74
62632;BME280;48703;51.248;-0.546;2023-06-22T02:55:27;101243;;;15.17;87.16
62632;BME280;48703;51.248;-0.546;2023-06-22T02:58:29;101244;;;15.11;88.11
62632;BME280;48703;51.248;-0.546;2023-06-22T03:01:31;101241;;;15.07;87.03
62632;BME280;48703;51.248;-0.546;2023-06-22T03:04:33;101239;;;15.09;87.80
62632;BME280;48703;51.248;-0.546;2023-06-22T03:07:34;101242;;;15.07;88.19
62632;BME280;48703;51.248;-0.546;2023-06-22T03:10:36;101239;;;15.03;87.93
62632;BME280;48703;51.248;-0.546;2023-06-22T03:13:38;101236;;;15.00;88.21
62632;BME280;48703;51.248;-0.546;2023-06-22T03:16:40;101229;;;14.98;87.43
62632;BME280;48703;51.248;-0.546;2023-06-22T03:19:42;101224;;;14.97;88.07
62632;BME280;48703;51.248;-0.546;2023-06-22T03:22:44;101224;;;14.97;87.64
62632;BME280;48703;51.248;-0.546;2023-06-22T03:25:46;101224;;;14.95;87.58
62632;BME280;48703;51.248;-0.546;2023-06-22T03:28:47;101221;;;14.91;87.91
62632;BME280;48703;51.248;-0.546;2023-06-22T03:31:49;101219;;;14.85;88.13
62632;BME280;48703;51.248;-0.546;2023-06-22T03:34:51;101217;;;14.82;87.92
62632;BME280;48703;51.248;-0.546;2023-06-22T03:37:53;101213;;;14.76;87.13
62632;BME280;48703;51.248;-0.546;2023-06-22T03:40:55;101210;;;14.73;87.90
62632;BME280;48703;51.248;-0.546;2023-06-22T03:43:57;101209;;;14.73;88.43
62632;BME280;48703;51.248;-0.546;2023-06-22T03:46:59;101206;;;14.75;89.59
62632;BME280;48703;51.248;-0.546;2023-06-22T03:50:01;101205;;;14.75;88.07
62632;BME280;48703;51.248;-0.546;2023-06-22T03:53:02;101205;;;14.71;88.30
62632;BME280;48703;51.248;-0.546;2023-06-22T03:56:04;101206;;;14.66;89.03
62632;BME280;48703;51.248;-0.546;2023-06-22T03:59:06;101204;;;14.61;89.51
62632;BME280;48703;51.248;-0.546;2023-06-22T04:02:08;101210;;;14.62;89.90
62632;BME280;48703;51.248;-0.546;2023-06-22T04:05:10;101218;;;14.63;88.48
62632;BME280;48703;51.248;-0.546;2023-06-22T04:08:12;101217;;;14.64;90.41
62632;BME280;48703;51.248;-0.546;2023-06-22T04:11:14;101218;;;14.61;89.41
62632;BME280;48703;51.248;-0.546;2023-06-22T04:14:15;101219;;;14.62;88.95
62632;BME280;48703;51.248;-0.546;2023-06-22T04:17:17;101216;;;14.64;88.72
62632;BME280;48703;51.248;-0.546;2023-06-22T04:20:19;101217;;;14.66;88.58
62632;BME280;48703;51.248;-0.546;2023-06-22T04:23:21;101213;;;14.64;89.07
62632;BME280;48703;51.248;-0.546;2023-06-22T04:26:23;101208;;;14.61;88.07
62632;BME280;48703;51.248;-0.546;2023-06-22T04:29:25;101208;;;14.58;88.89
62632;BME280;48703;51.248;-0.546;2023-06-22T04:32:27;101210;;;14.56;88.66
62632;BME280;48703;51.248;-0.546;2023-06-22T04:35:29;101213;;;14.60;90.35
62632;BME280;48703;51.248;-0.546;2023-06-22T04:38:30;101212;;;14.61;90.50
62632;BME280;48703;51.248;-0.546;2023-06-22T04:41:32;101209;;;14.58;90.64
62632;BME280;48703;51.248;-0.546;2023-06-22T04:44:34;101210;;;14.58;91.83
62632;BME280;48703;51.248;-0.546;2023-06-22T04:47:36;101207;;;14.59;89.97
62632;BME280;48703;51.248;-0.546;2023-06-22T04:50:38;101208;;;14.64;89.93
62632;BME280;48703;51.248;-0.546;2023-06-22T04:53:40;101212;;;14.69;90.51
62632;BME280;48703;51.248;-0.546;2023-06-22T04:56:42;101215;;;14.74;92.08
62632;BME280;48703;51.248;-0.546;2023-06-22T04:59:43;101215;;;14.75;91.04
62632;BME280;48703;51.248;-0.546;2023-06-22T05:02:45;101215;;;14.77;91.03
62632;BME280;48703;51.248;-0.546;2023-06-22T05:05:47;101217;;;14.83;91.03
62632;BME280;48703;51.248;-0.546;2023-06-22T05:08:49;101224;;;14.88;91.87
62632;BME280;48703;51.248;-0.546;2023-06-22T05:11:51;101233;;;14.89;91.00
62632;BME280;48703;51.248;-0.546;2023-06-22T05:14:53;101241;;;14.92;89.41
62632;BME280;48703;51.248;-0.546;2023-06-22T05:17:55;101245;;;14.99;91.05
62632;BME280;48703;51.248;-0.546;2023-06-22T05:20:57;101244;;;15.02;92.13
62632;BME280;48703;51.248;-0.546;2023-06-22T05:23:58;101240;;;15.07;92.38
62632;BME280;48703;51.248;-0.546;2023-06-22T05:27:00;101238;;;15.09;91.84
62632;BME280;48703;51.248;-0.546;2023-06-22T05:30:02;101234;;;15.17;92.69
62632;BME280;48703;51.248;-0.546;2023-06-22T05:33:04;101233;;;15.18;92.98
62632;BME280;48703;51.248;-0.546;2023-06-22T05:36:06;101239;;;15.16;92.70
62632;BME280;48703;51.248;-0.546;2023-06-22T05:39:10;101247;;;15.19;92.38
62632;BME280;48703;51.248;-0.546;2023-06-22T05:42:09;101244;;;15.22;92.79
62632;BME280;48703;51.248;-0.546;2023-06-22T05:45:11;101238;;;15.26;92.92
62632;BME280;48703;51.248;-0.546;2023-06-22T05:48:13;101240;;;15.27;92.54
62632;BME280;48703;51.248;-0.546;2023-06-22T05:51:15;101243;;;15.34;92.15
62632;BME280;48703;51.248;-0.546;2023-06-22T05:54:17;101243;;;15.39;91.98
62632;BME280;48703;51.248;-0.546;2023-06-22T05:57:19;101246;;;15.47;91.89
62632;BME280;48703;51.248;-0.546;2023-06-22T06:00:21;101249;;;15.50;90.75
62632;BME280;48703;51.248;-0.546;2023-06-22T06:03:23;101255;;;15.58;92.53
62632;BME280;48703;51.248;-0.546;2023-06-22T06:06:24;101256;;;15.59;92.38
62632;BME280;48703;51.248;-0.546;2023-06-22T06:09:26;101257;;;15.64;92.58
62632;BME280;48703;51.248;-0.546;2023-06-22T06:12:28;101260;;;15.65;92.68
62632;BME280;48703;51.248;-0.546;2023-06-22T06:15:30;101256;;;15.68;91.91
62632;BME280;48703;51.248;-0.546;2023-06-22T06:18:32;101250;;;15.71;91.96
62632;BME280;48703;51.248;-0.546;2023-06-22T06:21:34;101245;;;15.76;92.45
62632;BME280;48703;51.248;-0.546;2023-06-22T06:24:35;101248;;;15.79;91.94
62632;BME280;48703;51.248;-0.546;2023-06-22T06:27:37;101252;;;15.82;91.94
62632;BME280;48703;51.248;-0.546;2023-06-22T06:30:39;101248;;;15.86;92.18
62632;BME280;48703;51.248;-0.546;2023-06-22T06:33:41;101243;;;15.90;91.96
62632;BME280;48703;51.248;-0.546;2023-06-22T06:36:43;101241;;;15.95;92.22
62632;BME280;48703;51.248;-0.546;2023-06-22T06:39:45;101236;;;15.98;92.04
62632;BME280;48703;51.248;-0.546;2023-06-22T06:42:47;101232;;;16.03;91.56
62632;BME280;48703;51.248;-0.546;2023-06-22T06:45:49;101232;;;16.07;92.26
62632;BME280;48703;51.248;-0.546;2023-06-22T06:48:50;101231;;;16.10;91.93
62632;BME280;48703;51.248;-0.546;2023-06-22T06:51:52;101225;;;16.10;91.99
62632;BME280;48703;51.248;-0.546;2023-06-22T06:54:54;101226;;;16.15;92.14
62632;BME280;48703;51.248;-0.546;2023-06-22T06:57:56;101225;;;16.23;92.67
62632;BME280;48703;51.248;-0.546;2023-06-22T07:00:58;101226;;;16.27;91.50
62632;BME280;48703;51.248;-0.546;2023-06-22T07:04:00;101227;;;16.35;91.32
62632;BME280;48703;51.248;-0.546;2023-06-22T07:07:02;101227;;;16.41;91.74
62632;BME280;48703;51.248;-0.546;2023-06-22T07:10:04;101229;;;16.47;90.73
62632;BME280;48703;51.248;-0.546;2023-06-22T07:13:05;101225;;;16.51;90.89
62632;BME280;48703;51.248;-0.546;2023-06-22T07:16:07;101224;;;16.55;91.10
62632;BME280;48703;51.248;-0.546;2023-06-22T07:19:10;101227;;;16.58;90.20
62632;BME280;48703;51.248;-0.546;2023-06-22T07:22:11;101227;;;16.62;90.66
62632;BME280;48703;51.248;-0.546;2023-06-22T07:25:13;101225;;;16.66;90.45
62632;BME280;48703;51.248;-0.546;2023-06-22T07:28:15;101220;;;16.74;91.29
62632;BME280;48703;51.248;-0.546;2023-06-22T07:31:17;101220;;;16.80;90.70
62632;BME280;48703;51.248;-0.546;2023-06-22T07:34:18;101219;;;16.87;90.36
62632;BME280;48703;51.248;-0.546;2023-06-22T07:37:20;101215;;;16.94;89.84
62632;BME280;48703;51.248;-0.546;2023-06-22T07:40:22;101213;;;17.01;89.52
62632;BME280;48703;51.248;-0.546;2023-06-22T07:43:24;101210;;;17.08;90.21
62632;BME280;48703;51.248;-0.546;2023-06-22T07:46:26;101209;;;17.13;89.25
62632;BME280;48703;51.248;-0.546;2023-06-22T07:49:28;101210;;;17.17;88.71
62632;BME280;48703;51.248;-0.546;2023-06-22T07:52:30;101211;;;17.24;89.77
62632;BME280;48703;51.248;-0.546;2023-06-22T07:55:31;101206;;;17.30;89.26
62632;BME280;48703;51.248;-0.546;2023-06-22T07:58:33;101203;;;17.37;88.55
62632;BME280;48703;51.248;-0.546;2023-06-22T08:01:35;101203;;;17.44;88.72
62632;BME280;48703;51.248;-0.546;2023-06-22T08:04:37;101205;;;17.49;88.48
62632;BME280;48703;51.248;-0.546;2023-06-22T08:07:39;101210;;;17.54;87.57
62632;BME280;48703;51.248;-0.546;2023-06-22T08:10:41;101209;;;17.60;87.82
62632;BME280;48703;51.248;-0.546;2023-06-22T08:13:43;101206;;;17.64;86.76
62632;BME280;48703;51.248;-0.546;2023-06-22T08:16:44;101209;;;17.71;87.76
62632;BME280;48703;51.248;-0.546;2023-06-22T08:19:46;101210;;;17.80;86.14
62632;BME280;48703;51.248;-0.546;2023-06-22T08:22:48;101211;;;17.86;86.24
62632;BME280;48703;51.248;-0.546;2023-06-22T08:25:50;101209;;;17.93;87.00
62632;BME280;48703;51.248;-0.546;2023-06-22T08:28:52;101210;;;17.99;86.55
62632;BME280;48703;51.248;-0.546;2023-06-22T08:31:54;101211;;;18.11;85.60
62632;BME280;48703;51.248;-0.546;2023-06-22T08:34:56;101209;;;18.17;84.30
62632;BME280;48703;51.248;-0.546;2023-06-22T08:37:57;101209;;;18.22;83.96
62632;BME280;48703;51.248;-0.546;2023-06-22T08:40:59;101211;;;18.30;83.55
62632;BME280;48703;51.248;-0.546;2023-06-22T08:44:01;101215;;;18.34;84.11
62632;BME280;48703;51.248;-0.546;2023-06-22T08:47:03;101218;;;18.43;83.45
62632;BME280;48703;51.248;-0.546;2023-06-22T08:50:07;101216;;;18.52;82.38
62632;BME280;48703;51.248;-0.546;2023-06-22T08:53:07;101213;;;18.58;81.41
62632;BME280;48703;51.248;-0.546;2023-06-22T08:56:09;101214;;;18.67;81.31
62632;BME280;48703;51.248;-0.546;2023-06-22T08:59:11;101216;;;18.74;81.78
62632;BME280;48703;51.248;-0.546;2023-06-22T09:02:12;101218;;;18.82;81.79
62632;BME280;48703;51.248;-0.546;2023-06-22T09:05:14;101219;;;18.91;80.29
62632;BME280;48703;51.248;-0.546;2023-06-22T09:08:16;101220;;;19.05;80.84
62632;BME280;48703;51.248;-0.546;2023-06-22T09:11:18;101217;;;19.13;78.83
62632;BME280;48703;51.248;-0.546;2023-06-22T09:14:20;101215;;;19.17;78.85
62632;BME280;48703;51.248;-0.546;2023-06-22T09:17:22;101219;;;19.27;76.74
62632;BME280;48703;51.248;-0.546;2023-06-22T09:20:24;101216;;;19.38;74.17
62632;BME280;48703;51.248;-0.546;2023-06-22T09:23:25;101221;;;19.46;73.48
62632;BME280;48703;51.248;-0.546;2023-06-22T09:26:27;101223;;;19.49;72.19
62632;BME280;48703;51.248;-0.546;2023-06-22T09:29:29;101221;;;19.53;71.61
62632;BME280;48703;51.248;-0.546;2023-06-22T09:32:31;101217;;;19.63;71.65
62632;BME280;48703;51.248;-0.546;2023-06-22T09:35:33;101220;;;19.74;71.60
62632;BME280;48703;51.248;-0.546;2023-06-22T09:38:35;101223;;;19.83;69.37
62632;BME280;48703;51.248;-0.546;2023-06-22T09:41:37;101224;;;19.90;69.81
62632;BME280;48703;51.248;-0.546;2023-06-22T09:44:38;101226;;;19.97;71.47
62632;BME280;48703;51.248;-0.546;2023-06-22T09:47:40;101228;;;20.06;69.89
62632;BME280;48703;51.248;-0.546;2023-06-22T09:50:42;101226;;;20.14;69.60
62632;BME280;48703;51.248;-0.546;2023-06-22T09:53:44;101227;;;20.19;70.95
62632;BME280;48703;51.248;-0.546;2023-06-22T09:56:46;101227;;;20.25;71.82
62632;BME280;48703;51.248;-0.546;2023-06-22T09:59:48;101228;;;20.33;70.03
62632;BME280;48703;51.248;-0.546;2023-06-22T10:02:50;101226;;;20.43;65.53
62632;BME280;48703;51.248;-0.546;2023-06-22T10:05:51;101223;;;20.54;67.31
62632;BME280;48703;51.248;-0.546;2023-06-22T10:08:53;101220;;;20.61;65.42
62632;BME280;48703;51.248;-0.546;2023-06-22T10:11:55;101219;;;20.68;65.45
62632;BME280;48703;51.248;-0.546;2023-06-22T10:14:57;101221;;;20.77;65.31
62632;BME280;48703;51.248;-0.546;2023-06-22T10:17:59;101220;;;20.87;63.67
62632;BME280;48703;51.248;-0.546;2023-06-22T10:21:01;101219;;;20.95;63.73
62632;BME280;48703;51.248;-0.546;2023-06-22T10:24:03;101217;;;21.00;59.37
62632;BME280;48703;51.248;-0.546;2023-06-22T10:27:05;101219;;;21.12;58.85
62632;BME280;48703;51.248;-0.546;2023-06-22T10:30:07;101215;;;21.21;57.70
62632;BME280;48703;51.248;-0.546;2023-06-22T10:33:08;101218;;;21.29;58.18
62632;BME280;48703;51.248;-0.546;2023-06-22T10:36:10;101215;;;21.36;58.06
62632;BME280;48703;51.248;-0.546;2023-06-22T10:39:12;101218;;;21.40;58.04
62632;BME280;48703;51.248;-0.546;2023-06-22T10:42:14;101217;;;21.45;60.27
62632;BME280;48703;51.248;-0.546;2023-06-22T10:45:16;101218;;;21.53;61.24
62632;BME280;48703;51.248;-0.546;2023-06-22T10:48:18;101217;;;21.61;62.34
62632;BME280;48703;51.248;-0.546;2023-06-22T10:51:19;101216;;;21.70;60.92
62632;BME280;48703;51.248;-0.546;2023-06-22T10:54:21;101212;;;21.73;61.26
62632;BME280;48703;51.248;-0.546;2023-06-22T10:57:23;101212;;;21.80;61.15
62632;BME280;48703;51.248;-0.546;2023-06-22T11:00:25;101217;;;21.85;61.31
62632;BME280;48703;51.248;-0.546;2023-06-22T11:03:27;101217;;;21.94;57.69
62632;BME280;48703;51.248;-0.546;2023-06-22T11:06:29;101220;;;21.98;57.80
62632;BME280;48703;51.248;-0.546;2023-06-22T11:09:31;101223;;;22.04;58.81
62632;BME280;48703;51.248;-0.546;2023-06-22T11:12:32;101224;;;22.09;57.07
62632;BME280;48703;51.248;-0.546;2023-06-22T11:15:34;101222;;;22.13;56.28
62632;BME280;48703;51.248;-0.546;2023-06-22T11:18:36;101222;;;22.15;56.27
62632;BME280;48703;51.248;-0.546;2023-06-22T11:21:38;101223;;;22.19;55.93
62632;BME280;48703;51.248;-0.546;2023-06-22T11:24:40;101220;;;22.25;54.77
62632;BME280;48703;51.248;-0.546;2023-06-22T11:27:42;101219;;;22.33;56.36
62632;BME280;48703;51.248;-0.546;2023-06-22T11:30:44;101213;;;22.36;56.14
62632;BME280;48703;51.248;-0.546;2023-06-22T11:33:45;101210;;;22.45;54.77
62632;BME280;48703;51.248;-0.546;2023-06-22T11:36:47;101209;;;22.45;52.68
62632;BME280;48703;51.248;-0.546;2023-06-22T11:39:49;101209;;;22.52;52.90
62632;BME280;48703;51.248;-0.546;2023-06-22T11:42:51;101210;;;22.59;51.68
62632;BME280;48703;51.248;-0.546;2023-06-22T11:45:53;101209;;;22.64;52.16
62632;BME280;48703;51.248;-0.546;2023-06-22T11:48:55;101213;;;22.77;53.47
62632;BME280;48703;51.248;-0.546;2023-06-22T11:51:57;101211;;;22.79;54.18
62632;BME280;48703;51.248;-0.546;2023-06-22T11:54:58;101210;;;22.81;53.00
62632;BME280;48703;51.248;-0.546;2023-06-22T11:58:00;101208;;;22.84;52.45
62632;BME280;48703;51.248;-0.546;2023-06-22T12:01:02;101205;;;22.89;53.63
62632;BME280;48703;51.248;-0.546;2023-06-22T12:04:04;101202;;;22.97;52.17
62632;BME280;48703;51.248;-0.546;2023-06-22T12:07:06;101201;;;23.01;52.92
62632;BME280;48703;51.248;-0.546;2023-06-22T12:10:08;101195;;;22.96;52.44
62632;BME280;48703;51.248;-0.546;2023-06-22T12:13:10;101192;;;22.96;53.20
62632;BME280;48703;51.248;-0.546;2023-06-22T12:16:12;101193;;;22.96;52.28
62632;BME280;48703;51.248;-0.546;2023-06-22T12:19:13;101196;;;22.97;52.85
62632;BME280;48703;51.248;-0.546;2023-06-22T12:22:15;101191;;;22.94;52.60
62632;BME280;48703;51.248;-0.546;2023-06-22T12:25:17;101190;;;22.93;52.06
62632;BME280;48703;51.248;-0.546;2023-06-22T12:28:19;101183;;;22.94;52.72
62632;BME280;48703;51.248;-0.546;2023-06-22T12:31:21;101183;;;23.01;53.49
62632;BME280;48703;51.248;-0.546;2023-06-22T12:34:23;101183;;;23.09;50.05
62632;BME280;48703;51.248;-0.546;2023-06-22T12:37:25;101178;;;23.15;51.86
62632;BME280;48703;51.248;-0.546;2023-06-22T12:40:26;101174;;;23.21;53.49
62632;BME280;48703;51.248;-0.546;2023-06-22T12:43:28;101173;;;23.26;51.04
62632;BME280;48703;51.248;-0.546;2023-06-22T12:46:30;101173;;;23.36;51.45
62632;BME280;48703;51.248;-0.546;2023-06-22T12:49:32;101172;;;23.42;51.07
62632;BME280;48703;51.248;-0.546;2023-06-22T12:52:36;101173;;;23.45;51.86
62632;BME280;48703;51.248;-0.546;2023-06-22T12:55:36;101175;;;23.40;52.38
62632;BME280;48703;51.248;-0.546;2023-06-22T12:58:38;101173;;;23.35;51.35
62632;BME280;48703;51.248;-0.546;2023-06-22T13:01:39;101172;;;23.34;50.82
62632;BME280;48703;51.248;-0.546;2023-06-22T13:04:41;101173;;;23.34;50.05
62632;BME280;48703;51.248;-0.546;2023-06-22T13:07:43;101165;;;23.33;51.15
62632;BME280;48703;51.248;-0.546;2023-06-22T13:10:45;101161;;;23.37;50.45
62632;BME280;48703;51.248;-0.546;2023-06-22T13:13:47;101161;;;23.42;49.79
62632;BME280;48703;51.248;-0.546;2023-06-22T13:16:54;101162;;;23.50;51.60
62632;BME280;48703;51.248;-0.546;2023-06-22T13:19:51;101159;;;23.60;50.01
62632;BME280;48703;51.248;-0.546;2023-06-22T13:22:52;101160;;;23.70;50.00
62632;BME280;48703;51.248;-0.546;2023-06-22T13:25:55;101158;;;23.72;48.43
62632;BME280;48703;51.248;-0.546;2023-06-22T13:28:56;101156;;;23.73;49.68
62632;BME280;48703;51.248;-0.546;2023-06-22T13:31:58;101158;;;23.88;48.76
62632;BME280;48703;51.248;-0.546;2023-06-22T13:35:00;101155;;;23.98;48.79
62632;BME280;48703;51.248;-0.546;2023-06-22T13:38:02;101154;;;24.11;48.15
62632;BME280;48703;51.248;-0.546;2023-06-22T13:41:04;101153;;;24.11;46.42
62632;BME280;48703;51.248;-0.546;2023-06-22T13:44:05;101155;;;24.11;49.17
62632;BME280;48703;51.248;-0.546;2023-06-22T13:47:07;101155;;;24.17;48.47
62632;BME280;48703;51.248;-0.546;2023-06-22T13:50:09;101158;;;24.23;48.55
62632;BME280;48703;51.248;-0.546;2023-06-22T13:53:11;101158;;;24.36;46.81
62632;BME280;48703;51.248;-0.546;2023-06-22T13:56:13;101154;;;24.47;46.23
62632;BME280;48703;51.248;-0.546;2023-06-22T13:59:15;101151;;;24.52;46.78
62632;BME280;48703;51.248;-0.546;2023-06-22T14:02:17;101148;;;24.60;47.67
62632;BME280;48703;51.248;-0.546;2023-06-22T14:05:19;101150;;;24.75;45.69
62632;BME280;48703;51.248;-0.546;2023-06-22T14:08:20;101154;;;24.69;47.38
62632;BME280;48703;51.248;-0.546;2023-06-22T14:11:22;101157;;;24.58;46.38
62632;BME280;48703;51.248;-0.546;2023-06-22T14:14:24;101158;;;24.47;46.83
62632;BME280;48703;51.248;-0.546;2023-06-22T14:17:26;101154;;;24.48;46.46
62632;BME280;48703;51.248;-0.546;2023-06-22T14:20:28;101149;;;24.66;47.22
62632;BME280;48703;51.248;-0.546;2023-06-22T14:23:30;101148;;;24.80;45.65
62632;BME280;48703;51.248;-0.546;2023-06-22T14:26:32;101142;;;24.89;48.30
62632;BME280;48703;51.248;-0.546;2023-06-22T14:29:33;101144;;;25.05;46.12
62632;BME280;48703;51.248;-0.546;2023-06-22T14:32:36;101142;;;25.19;43.20
62632;BME280;48703;51.248;-0.546;2023-06-22T14:35:37;101146;;;25.35;43.36
62632;BME280;48703;51.248;-0.546;2023-06-22T14:38:39;101147;;;25.53;43.74
62632;BME280;48703;51.248;-0.546;2023-06-22T14:41:41;101145;;;25.67;43.66
62632;BME280;48703;51.248;-0.546;2023-06-22T14:44:43;101142;;;25.74;43.98
62632;BME280;48703;51.248;-0.546;2023-06-22T14:47:45;101144;;;25.89;45.07
62632;BME280;48703;51.248;-0.546;2023-06-22T14:50:46;101150;;;26.02;41.77
62632;BME280;48703;51.248;-0.546;2023-06-22T14:53:48;101144;;;26.12;41.41
62632;BME280;48703;51.248;-0.546;2023-06-22T14:56:50;101143;;;26.21;42.53
62632;BME280;48703;51.248;-0.546;2023-06-22T14:59:52;101146;;;26.35;40.77
62632;BME280;48703;51.248;-0.546;2023-06-22T15:02:54;101146;;;26.49;41.09
62632;BME280;48703;51.248;-0.546;2023-06-22T15:05:56;101147;;;26.63;40.70
62632;BME280;48703;51.248;-0.546;2023-06-22T15:08:58;101139;;;26.73;40.39
62632;BME280;48703;51.248;-0.546;2023-06-22T15:12:00;101139;;;26.84;38.92
62632;BME280;48703;51.248;-0.546;2023-06-22T15:15:01;101143;;;27.00;42.74
62632;BME280;48703;51.248;-0.546;2023-06-22T15:18:03;101139;;;27.09;41.46
62632;BME280;48703;51.248;-0.546;2023-06-22T15:21:05;101143;;;27.17;39.02
62632;BME280;48703;51.248;-0.546;2023-06-22T15:24:07;101149;;;27.30;41.22
62632;BME280;48703;51.248;-0.546;2023-06-22T15:27:09;101146;;;27.36;37.75
62632;BME280;48703;51.248;-0.546;2023-06-22T15:30:11;101142;;;27.45;40.51
62632;BME280;48703;51.248;-0.546;2023-06-22T15:33:13;101148;;;27.59;37.42
62632;BME280;48703;51.248;-0.546;2023-06-22T15:36:14;101148;;;27.61;36.96
62632;BME280;48703;51.248;-0.546;2023-06-22T15:39:16;101151;;;27.66;37.01
62632;BME280;48703;51.248;-0.546;2023-06-22T15:42:18;101153;;;27.63;36.12
62632;BME280;48703;51.248;-0.546;2023-06-22T15:45:20;101152;;;27.61;37.86
62632;BME280;48703;51.248;-0.546;2023-06-22T15:48:22;101153;;;27.67;38.00
62632;BME280;48703;51.248;-0.546;2023-06-22T15:51:24;101150;;;27.70;37.32
62632;BME280;48703;51.248;-0.546;2023-06-22T15:54:26;101155;;;27.73;38.52
62632;BME280;48703;51.248;-0.546;2023-06-22T15:57:27;101155;;;27.75;36.28
62632;BME280;48703;51.248;-0.546;2023-06-22T16:00:29;101152;;;27.74;37.57
62632;BME280;48703;51.248;-0.546;2023-06-22T16:03:31;101154;;;27.74;37.06
62632;BME280;48703;51.248;-0.546;2023-06-22T16:06:33;101150;;;27.80;38.06
62632;BME280;48703;51.248;-0.546;2023-06-22T16:09:35;101150;;;27.83;35.82
62632;BME280;48703;51.248;-0.546;2023-06-22T16:12:37;101152;;;27.86;36.61
62632;BME280;48703;51.248;-0.546;2023-06-22T16:15:39;101156;;;27.87;36.59